Time;durP1;ratioP1;P1;durP2;ratioP2;P2;SDS_P1;SDS_P2;PMS_P1;PMS_P2;Temp;Humidity;BMP_temperature;BMP_pressure;BME280_temperature;BME280_humidity;BME280_pressure;Samples;Min_cycle;Max_cycle;Signal;HPM_P1;HPM_P2
2021/12/15 00:01:06;;;;;;;4.57;0.98;;;26.00;59.90;;;;;;4125967;28;21662;-45
2021/12/15 00:03:09;;;;;;;15.00;1.00;;;26.00;60.00;;;;;;4115843;28;20098;-43
2021/12/15 00:05:20;;;;;;;2.30;0.88;;;26.10;60.00;;;;;;4120326;28;20079;-50
2021/12/15 00:07:25;;;;;;;5.80;1.42;;;26.10;59.80;;;;;;4118819;28;20055;-50
2021/12/15 00:09:29;;;;;;;2.58;1.35;;;26.10;58.90;;;;;;4123685;28;20148;-53
2021/12/15 00:11:36;;;;;;;3.42;1.40;;;26.10;59.10;;;;;;4128682;28;20053;-50
2021/12/15 00:13:40;;;;;;;3.08;1.10;;;26.10;59.10;;;;;;4123203;28;20261;-45
2021/12/15 00:15:44;;;;;;;2.28;0.95;;;26.10;59.20;;;;;;4119282;28;20501;-49
2021/12/15 00:17:46;;;;;;;2.88;1.05;;;26.10;59.30;;;;;;4120177;28;20068;-50
2021/12/15 00:19:48;;;;;;;1.80;0.95;;;26.20;59.40;;;;;;4132627;28;20140;-50
2021/12/15 00:21:51;;;;;;;1.93;0.90;;;26.20;59.40;;;;;;4123242;28;21982;-48
2021/12/15 00:23:53;;;;;;;2.33;1.17;;;26.20;59.40;;;;;;4120807;28;20049;-49
2021/12/15 00:25:55;;;;;;;1.23;0.82;;;26.20;59.40;;;;;;4128722;28;20053;-53
2021/12/15 00:27:57;;;;;;;1.73;0.70;;;26.30;59.40;;;;;;4124066;28;20045;-49
2021/12/15 00:30:00;;;;;;;2.10;0.80;;;26.30;59.50;;;;;;4121124;28;20162;-52
2021/12/15 00:32:04;;;;;;;2.57;0.90;;;26.30;59.10;;;;;;4122661;28;20064;-53
2021/12/15 00:34:07;;;;;;;1.77;0.95;;;26.30;59.40;;;;;;4129374;28;20407;-51
2021/12/15 00:36:09;;;;;;;;;;;26.40;59.40;;;;;;4118821;28;20824;-49
2021/12/15 00:38:11;;;;;;;0.98;0.70;;;26.40;59.50;;;;;;4120476;28;19928;-50
2021/12/15 00:40:16;;;;;;;1.60;0.90;;;26.40;59.60;;;;;;4127691;28;20094;-51
2021/12/15 00:42:20;;;;;;;1.42;0.82;;;26.50;59.60;;;;;;4132053;28;20630;-51
2021/12/15 00:44:22;;;;;;;1.65;0.73;;;26.50;59.50;;;;;;4122190;28;20136;-50
2021/12/15 00:46:25;;;;;;;1.33;0.80;;;26.50;59.50;;;;;;4123295;28;20131;-51
2021/12/15 00:48:28;;;;;;;1.73;0.95;;;26.50;59.50;;;;;;4129953;28;20042;-54
2021/12/15 00:50:34;;;;;;;0.98;0.75;;;26.60;59.50;;;;;;4123519;28;20254;-50
2021/12/15 00:52:38;;;;;;;1.30;0.80;;;26.60;59.60;;;;;;4118940;28;20049;-48
2021/12/15 00:54:41;;;;;;;2.45;0.80;;;26.60;60.20;;;;;;4120170;28;20054;-48
2021/12/15 00:56:44;;;;;;;1.20;0.68;;;26.60;59.60;;;;;;4128867;28;20723;-55
2021/12/15 00:58:46;;;;;;;1.50;0.80;;;26.60;59.50;;;;;;4127982;28;21063;-48
2021/12/15 01:02:11;;;;;;;1.38;0.80;;;26.70;59.00;;;;;;4176848;27;20972;-47
2021/12/15 01:04:17;;;;;;;1.17;0.60;;;26.70;58.90;;;;;;4167091;28;21533;-49
2021/12/15 01:06:21;;;;;;;1.13;0.73;;;26.80;59.50;;;;;;4166610;28;20044;-49
2021/12/15 01:08:28;;;;;;;1.50;0.80;;;26.80;59.50;;;;;;4166134;28;20052;-47
2021/12/15 01:10:45;;;;;;;1.40;0.70;;;26.80;60.00;;;;;;4173612;28;20126;-52
2021/12/15 01:19:47;;;;;;;0.93;0.55;;;26.90;59.30;;;;;;4170055;28;20548;-46
2021/12/15 01:21:51;;;;;;;0.68;0.47;;;27.00;59.30;;;;;;4167722;28;20112;-51
2021/12/15 01:23:53;;;;;;;0.60;0.60;;;27.00;59.20;;;;;;4169344;28;20482;-51
2021/12/15 01:26:01;;;;;;;1.60;0.88;;;27.00;59.10;;;;;;4170601;28;20108;-53
2021/12/15 01:28:04;;;;;;;0.82;0.60;;;27.00;59.30;;;;;;4175021;28;20044;-51
2021/12/15 01:30:09;;;;;;;1.27;0.82;;;27.00;58.60;;;;;;4169519;28;21357;-49
2021/12/15 01:32:11;;;;;;;1.02;0.75;;;27.10;58.40;;;;;;4165068;28;20090;-46
2021/12/15 01:34:14;;;;;;;2.83;0.93;;;27.10;58.30;;;;;;4159037;28;20432;-50
2021/12/15 01:36:16;;;;;;;1.35;0.90;;;27.10;58.50;;;;;;4158841;28;20040;-48
2021/12/15 01:38:21;;;;;;;1.45;0.80;;;27.10;58.60;;;;;;4150537;28;20048;-51
2021/12/15 01:40:34;;;;;;;1.63;0.80;;;27.10;58.90;;;;;;4151250;28;20196;-48
2021/12/15 01:42:36;;;;;;;;;;;27.10;59.10;;;;;;4151287;28;20071;-47
2021/12/15 01:47:03;;;;;;;7.03;0.85;;;27.20;59.00;;;;;;4148371;28;20059;-50
2021/12/15 01:49:12;;;;;;;1.88;0.80;;;27.30;59.00;;;;;;4149100;28;20063;-50
2021/12/15 01:51:14;;;;;;;1.52;1.00;;;27.30;59.10;;;;;;4145849;28;20056;-48
2021/12/15 01:53:17;;;;;;;5.60;1.00;;;27.30;58.80;;;;;;4155094;28;20053;-49
2021/12/15 01:55:21;;;;;;;2.60;0.82;;;27.30;58.70;;;;;;4149627;28;21984;-48
2021/12/15 01:57:26;;;;;;;2.17;0.80;;;27.40;58.70;;;;;;4146663;28;20070;-51
2021/12/15 01:59:29;;;;;;;4.57;1.02;;;27.40;58.70;;;;;;4147867;28;20055;-51
2021/12/15 02:01:32;;;;;;;2.58;0.90;;;27.40;58.70;;;;;;4150310;28;20048;-49
2021/12/15 02:03:35;;;;;;;3.90;0.82;;;27.40;58.60;;;;;;4158836;28;20067;-45
2021/12/15 02:05:38;;;;;;;4.32;1.00;;;27.50;58.90;;;;;;4147680;28;20049;-47
2021/12/15 02:07:43;;;;;;;1.45;0.80;;;27.50;58.80;;;;;;4145583;28;20139;-47
2021/12/15 02:10:01;;;;;;;3.08;1.05;;;27.50;58.80;;;;;;4149446;28;20193;-53
2021/12/15 02:12:03;;;;;;;4.00;1.00;;;27.50;58.90;;;;;;4144447;28;20049;-52
2021/12/15 02:14:06;;;;;;;1.25;0.90;;;27.60;58.70;;;;;;4145795;28;20057;-49
2021/12/15 02:16:08;;;;;;;1.98;1.00;;;27.60;58.80;;;;;;4137560;28;20060;-50
2021/12/15 02:18:13;;;;;;;3.50;0.70;;;27.60;58.70;;;;;;4136572;28;20072;-45
2021/12/15 02:20:19;;;;;;;1.98;0.80;;;27.70;58.90;;;;;;4138366;28;20059;-48
2021/12/15 02:22:21;;;;;;;4.88;0.85;;;27.70;58.70;;;;;;4146070;28;20056;-49
2021/12/15 02:24:23;;;;;;;2.25;0.98;;;27.70;58.80;;;;;;4138869;28;20049;-55
2021/12/15 02:26:28;;;;;;;3.17;0.80;;;27.70;58.70;;;;;;4137251;28;20049;-49
2021/12/15 02:28:30;;;;;;;2.10;0.90;;;27.80;58.60;;;;;;4139725;28;20060;-55
2021/12/15 02:32:54;;;;;;;2.10;1.20;;;27.80;57.90;;;;;;4140284;28;20403;-53
2021/12/15 02:37:04;;;;;;;1.88;1.25;;;27.80;57.80;;;;;;4150052;28;20190;-50
2021/12/15 02:37:19;;;;;;;2.40;1.40;;;27.80;57.70;;;;;;4141438;28;20126;-53
2021/12/15 02:39:21;;;;;;;3.28;1.67;;;27.80;57.70;;;;;;4145636;28;20067;-53
2021/12/15 02:41:26;;;;;;;3.28;1.30;;;27.80;57.80;;;;;;4141771;28;20044;-52
2021/12/15 02:43:28;;;;;;;5.22;1.63;;;27.80;57.80;;;;;;4142067;28;20044;-51
2021/12/15 02:45:31;;;;;;;2.97;1.20;;;27.80;57.70;;;;;;4145032;28;20174;-54
2021/12/15 02:47:34;;;;;;;2.58;1.00;;;27.90;58.50;;;;;;4147604;28;20699;-51
2021/12/15 02:49:36;;;;;;;2.13;1.25;;;27.90;57.90;;;;;;4140811;28;20060;-53
2021/12/15 02:51:40;;;;;;;4.10;1.40;;;27.90;57.90;;;;;;4137710;28;20169;-57
2021/12/15 02:53:43;;;;;;;1.85;0.95;;;27.90;58.30;;;;;;4146207;28;20428;-54
2021/12/15 02:55:45;;;;;;;2.60;1.35;;;28.00;57.90;;;;;;4142757;28;20055;-50
2021/12/15 02:57:49;;;;;;;1.75;1.10;;;28.00;57.90;;;;;;4139197;28;20106;-52
2021/12/15 03:02:05;;;;;;;2.90;1.10;;;28.10;57.80;;;;;;4137280;28;20140;-46
2021/12/15 03:06:18;;;;;;;2.78;1.50;;;28.10;58.00;;;;;;4139893;28;20048;-52
2021/12/15 03:08:25;;;;;;;4.10;1.30;;;28.10;58.10;;;;;;4142860;28;20413;-46
2021/12/15 03:15:33;;;;;;;4.20;1.55;;;28.20;58.20;;;;;;4153427;28;20116;-50
2021/12/15 03:17:36;;;;;;;5.07;1.30;;;28.30;58.30;;;;;;4136830;28;20175;-53
2021/12/15 03:19:38;;;;;;;3.60;1.27;;;28.30;58.30;;;;;;4140192;28;20618;-56
2021/12/15 03:21:41;;;;;;;4.72;1.20;;;28.30;58.30;;;;;;4145890;28;20416;-46
2021/12/15 03:23:54;;;;;;;3.03;1.20;;;28.40;58.30;;;;;;4135906;28;20052;-50
2021/12/15 03:25:58;;;;;;;3.30;1.27;;;28.40;58.30;;;;;;4135580;28;20099;-48
2021/12/15 03:39:25;;;;;;;2.22;1.10;;;28.60;58.30;;;;;;4146573;28;20072;-49
2021/12/15 03:41:27;;;;;;;1.98;1.08;;;28.60;58.30;;;;;;4121597;28;20143;-48
2021/12/15 03:43:31;;;;;;;14.77;1.40;;;28.60;58.40;;;;;;4135830;28;20052;-48
2021/12/15 03:45:39;;;;;;;5.30;1.20;;;28.70;58.50;;;;;;4139149;28;20135;-49
2021/12/15 03:47:45;;;;;;;2.28;0.90;;;28.70;58.60;;;;;;4141783;28;20099;-50
2021/12/15 03:49:48;;;;;;;2.00;0.93;;;28.80;58.70;;;;;;4145890;28;20074;-49
2021/12/15 03:51:51;;;;;;;1.83;1.00;;;28.80;58.60;;;;;;4158459;28;21778;-49
2021/12/15 03:53:53;;;;;;;4.07;1.10;;;28.80;58.50;;;;;;4133853;28;20048;-46
2021/12/15 03:55:56;;;;;;;2.92;1.00;;;28.90;58.90;;;;;;4142270;28;20063;-51
2021/12/15 03:58:00;;;;;;;3.50;0.82;;;28.90;58.60;;;;;;4144367;28;20126;-46
2021/12/15 04:02:14;;;;;;;1.35;0.82;;;29.00;57.90;;;;;;4155624;27;20430;-48
2021/12/15 04:04:16;;;;;;;2.60;0.82;;;29.00;58.40;;;;;;4156323;28;20072;-51
2021/12/15 04:06:24;;;;;;;2.13;1.00;;;29.10;58.40;;;;;;4165878;28;20068;-52
2021/12/15 04:08:28;;;;;;;2.33;0.82;;;29.10;58.20;;;;;;4166915;28;20059;-52
2021/12/15 04:10:31;;;;;;;2.13;0.80;;;29.20;58.50;;;;;;4153213;28;20087;-51
2021/12/15 04:12:33;;;;;;;0.60;0.50;;;29.20;58.40;;;;;;4153754;28;20109;-54
2021/12/15 04:14:43;;;;;;;0.40;0.40;;;29.20;58.40;;;;;;4162422;28;20747;-50
2021/12/15 04:16:58;;;;;;;2.13;0.88;;;29.30;58.40;;;;;;4166163;28;20050;-49
2021/12/15 04:19:04;;;;;;;1.88;0.85;;;29.30;58.50;;;;;;4157124;28;20055;-56
2021/12/15 04:21:07;;;;;;;1.50;0.80;;;29.40;58.60;;;;;;4163976;28;20052;-50
2021/12/15 04:23:18;;;;;;;2.58;0.88;;;29.40;58.60;;;;;;4140598;28;20048;-48
2021/12/15 04:25:24;;;;;;;2.05;0.63;;;29.50;58.40;;;;;;4156872;28;20052;-45
2021/12/15 04:27:26;;;;;;;2.63;0.73;;;29.60;57.90;;;;;;4153101;28;20065;-52
2021/12/15 04:29:30;;;;;;;2.80;0.80;;;29.60;58.40;;;;;;4158123;28;20112;-50
2021/12/15 04:31:36;;;;;;;1.52;0.70;;;29.70;58.40;;;;;;4162864;28;20312;-52
2021/12/15 04:33:41;;;;;;;2.35;0.63;;;29.70;58.30;;;;;;4151403;28;20052;-51
2021/12/15 04:35:44;;;;;;;2.78;0.88;;;29.80;58.30;;;;;;4151824;28;20056;-48
2021/12/15 04:37:47;;;;;;;1.73;1.08;;;29.80;57.20;;;;;;4155577;28;20052;-47
2021/12/15 04:39:50;;;;;;;1.65;1.05;;;29.80;54.80;;;;;;4161864;28;20056;-47
2021/12/15 04:41:53;;;;;;;2.70;1.20;;;29.70;53.00;;;;;;4153381;28;20056;-46
2021/12/15 04:44:00;;;;;;;3.08;1.33;;;29.50;51.70;;;;;;4149330;28;20088;-48
2021/12/15 04:46:04;;;;;;;1.02;0.88;;;29.40;50.80;;;;;;4154261;28;20076;-50
2021/12/15 04:48:08;;;;;;;1.42;1.08;;;29.20;50.40;;;;;;4161326;28;20052;-54
2021/12/15 04:50:11;;;;;;;1.02;0.80;;;29.10;49.80;;;;;;4156676;28;20048;-54
2021/12/15 04:52:14;;;;;;;;;;;29.00;49.70;;;;;;4152531;28;20052;-52
2021/12/15 04:54:17;;;;;;;1.63;1.23;;;28.80;49.30;;;;;;4153133;28;19935;-48
2021/12/15 04:56:21;;;;;;;1.88;1.02;;;28.70;49.30;;;;;;4161694;28;20036;-51
2021/12/15 04:58:24;;;;;;;1.70;1.20;;;28.70;49.30;;;;;;4153423;28;20048;-45
2021/12/15 05:00:31;;;;;;;2.80;1.40;;;28.60;49.10;;;;;;4150977;28;20052;-46
2021/12/15 05:02:33;;;;;;;1.75;1.10;;;28.50;49.10;;;;;;4147447;28;20052;-50
2021/12/15 05:04:36;;;;;;;1.35;1.20;;;28.30;49.00;;;;;;4152153;28;20451;-45
2021/12/15 05:06:39;;;;;;;;;;;28.30;48.80;;;;;;4155241;28;21110;-47
2021/12/15 05:08:42;;;;;;;1.90;1.17;;;28.20;49.00;;;;;;4152536;28;19928;-49
2021/12/15 05:10:44;;;;;;;1.75;1.02;;;28.10;49.00;;;;;;4151504;28;20053;-47
2021/12/15 05:12:47;;;;;;;3.10;1.25;;;28.10;49.10;;;;;;4155183;28;20114;-50
2021/12/15 05:14:49;;;;;;;1.83;1.10;;;27.90;49.00;;;;;;4140698;28;22001;-51
2021/12/15 05:16:53;;;;;;;1.35;1.00;;;27.80;49.40;;;;;;4141599;28;20041;-49
2021/12/15 05:18:55;;;;;;;1.55;1.10;;;27.70;49.00;;;;;;4143373;28;20052;-49
2021/12/15 05:20:59;;;;;;;1.58;1.13;;;27.60;49.20;;;;;;4148502;28;20052;-52
2021/12/15 05:23:03;;;;;;;1.77;1.40;;;27.50;49.00;;;;;;4149715;28;20037;-49
2021/12/15 05:25:07;;;;;;;1.30;1.02;;;27.40;49.00;;;;;;4141446;28;20170;-46
2021/12/15 05:27:16;;;;;;;3.08;1.25;;;27.30;48.90;;;;;;4139191;28;20059;-48
2021/12/15 05:29:18;;;;;;;1.90;1.20;;;27.20;49.00;;;;;;4138130;28;20052;-46
2021/12/15 05:31:20;;;;;;;2.17;1.30;;;27.10;48.90;;;;;;4139365;28;20765;-51
2021/12/15 05:33:26;;;;;;;1.63;1.33;;;27.00;49.00;;;;;;4143301;28;20098;-49
2021/12/15 05:35:28;;;;;;;1.45;1.10;;;26.90;49.00;;;;;;4137644;28;20507;-48
2021/12/15 05:37:30;;;;;;;1.83;1.23;;;26.80;49.10;;;;;;4138453;28;20059;-49
2021/12/15 05:39:33;;;;;;;2.50;1.20;;;26.70;49.20;;;;;;4147396;28;20518;-49
2021/12/15 05:41:36;;;;;;;2.35;1.10;;;26.60;49.40;;;;;;4142550;28;20905;-47
2021/12/15 05:43:38;;;;;;;;;;;26.50;49.30;;;;;;4139133;28;20048;-48
2021/12/15 05:45:41;;;;;;;1.98;1.42;;;26.50;49.50;;;;;;4134469;28;20838;-51
2021/12/15 05:47:43;;;;;;;1.75;1.02;;;26.40;49.50;;;;;;4143762;28;20052;-44
2021/12/15 05:49:46;;;;;;;1.90;1.27;;;26.40;49.60;;;;;;4133643;28;20124;-50
2021/12/15 05:51:49;;;;;;;1.92;1.20;;;26.30;49.50;;;;;;4139501;28;20594;-47
2021/12/15 05:53:51;;;;;;;1.58;1.20;;;26.20;49.70;;;;;;4140277;28;20110;-59
2021/12/15 05:55:54;;;;;;;3.30;1.55;;;26.10;49.80;;;;;;4149517;28;20209;-46
2021/12/15 05:57:56;;;;;;;6.97;1.60;;;26.10;49.90;;;;;;4138180;28;20088;-48
2021/12/15 05:59:58;;;;;;;1.50;1.15;;;26.00;50.00;;;;;;4138532;28;20052;-49
2021/12/15 06:02:01;;;;;;;1.55;1.35;;;26.00;49.90;;;;;;4138175;28;20642;-52
2021/12/15 06:04:06;;;;;;;2.55;1.00;;;25.90;49.90;;;;;;4149323;28;20167;-46
2021/12/15 06:06:08;;;;;;;3.05;1.20;;;25.90;50.50;;;;;;4138029;28;21463;-50
2021/12/15 06:08:10;;;;;;;1.30;1.10;;;25.80;50.00;;;;;;4140257;28;20053;-46
2021/12/15 06:10:21;;;;;;;1.35;0.95;;;25.80;50.00;;;;;;4141927;28;20129;-47
2021/12/15 06:12:23;;;;;;;2.78;1.40;;;25.70;50.00;;;;;;4146402;28;20125;-47
2021/12/15 06:14:27;;;;;;;1.30;0.98;;;25.70;50.20;;;;;;4141528;28;21006;-44
2021/12/15 06:16:30;;;;;;;2.20;1.20;;;25.70;50.10;;;;;;4139201;28;21278;-45
2021/12/15 06:18:32;;;;;;;1.63;1.33;;;25.70;50.00;;;;;;4138544;28;20160;-43
2021/12/15 06:20:35;;;;;;;2.50;1.33;;;25.70;50.10;;;;;;4147753;28;20499;-48
2021/12/15 06:22:40;;;;;;;2.08;1.20;;;25.70;50.20;;;;;;4137643;28;21472;-50
2021/12/15 06:24:42;;;;;;;4.07;1.50;;;25.70;50.30;;;;;;4137526;28;20510;-48
2021/12/15 06:26:44;;;;;;;3.92;1.25;;;25.70;50.60;;;;;;4137173;28;20491;-45
2021/12/15 06:28:48;;;;;;;1.27;1.08;;;25.70;50.60;;;;;;4144702;28;20149;-45
2021/12/15 06:30:50;;;;;;;1.70;1.10;;;25.60;50.90;;;;;;4144171;28;20770;-52
2021/12/15 06:32:52;;;;;;;3.30;1.42;;;25.60;51.10;;;;;;4136170;28;20150;-49
2021/12/15 06:34:55;;;;;;;2.03;1.05;;;25.50;51.30;;;;;;4140901;28;20133;-49
2021/12/15 06:36:57;;;;;;;1.02;0.90;;;25.40;51.10;;;;;;4147356;28;20122;-50
2021/12/15 06:39:00;;;;;;;2.80;1.42;;;25.40;52.00;;;;;;4142227;28;20186;-55
2021/12/15 06:41:05;;;;;;;2.08;1.25;;;25.40;51.50;;;;;;4140019;28;21848;-50
2021/12/15 06:43:07;;;;;;;2.03;1.42;;;25.30;51.40;;;;;;4141052;28;21193;-51
2021/12/15 06:45:14;;;;;;;1.55;1.23;;;25.20;51.20;;;;;;4149189;28;20052;-50
2021/12/15 06:47:42;;;;;;;1.35;1.00;;;25.20;51.30;;;;;;4148210;28;20056;-54
2021/12/15 06:59:00;;;;;;;2.63;1.63;;;25.10;51.10;;;;;;4142924;28;20045;-54
2021/12/15 07:02:15;;;;;;;2.80;1.90;;;25.00;50.90;;;;;;4167180;27;20538;-56
2021/12/15 07:04:21;;;;;;;3.40;1.70;;;25.00;51.60;;;;;;4161840;28;20149;-51
2021/12/15 07:06:24;;;;;;;2.25;1.73;;;25.00;51.80;;;;;;4156143;28;20056;-51
2021/12/15 07:08:28;;;;;;;3.25;1.65;;;24.90;51.70;;;;;;4155594;28;20055;-54
2021/12/15 07:10:33;;;;;;;2.42;1.70;;;24.90;51.70;;;;;;4163078;28;20052;-55
2021/12/15 07:12:35;;;;;;;1.95;1.42;;;24.90;51.60;;;;;;4167635;28;20256;-54
2021/12/15 07:14:37;;;;;;;2.13;1.30;;;24.80;51.70;;;;;;4159984;28;20746;-50
2021/12/15 07:16:43;;;;;;;1.77;1.48;;;24.90;52.00;;;;;;4160617;28;22035;-54
2021/12/15 07:19:04;;;;;;;1.98;1.30;;;24.80;51.80;;;;;;4166904;28;20786;-54
2021/12/15 07:21:09;;;;;;;2.00;1.35;;;24.80;51.80;;;;;;4160103;28;20052;-56
2021/12/15 07:23:20;;;;;;;1.83;1.40;;;24.70;51.60;;;;;;4156542;28;20049;-54
2021/12/15 07:25:22;;;;;;;1.92;1.25;;;24.70;51.50;;;;;;4157866;28;20048;-54
2021/12/15 07:27:24;;;;;;;2.53;1.30;;;24.60;51.70;;;;;;4163103;28;20056;-52
2021/12/15 07:29:28;;;;;;;1.53;1.40;;;24.60;52.00;;;;;;4154821;28;20055;-56
2021/12/15 07:31:30;;;;;;;1.35;1.20;;;24.60;52.10;;;;;;4154304;28;20040;-54
2021/12/15 07:33:33;;;;;;;1.42;1.13;;;;;;;;;;4162592;28;20522;-54
2021/12/15 07:35:36;;;;;;;1.63;1.10;;;;;;;;;;4160063;28;20044;-52
2021/12/15 07:37:38;;;;;;;2.08;1.40;;;;;;;;;;4183665;27;20079;-56
2021/12/15 07:39:47;;;;;;;1.63;1.20;;;24.50;52.20;;;;;;4153034;28;20052;-54
2021/12/15 07:42:05;;;;;;;2.05;1.20;;;24.40;51.90;;;;;;4159160;28;20052;-53
2021/12/15 07:44:08;;;;;;;2.05;1.40;;;24.30;52.00;;;;;;4154879;28;20043;-55
2021/12/15 07:46:12;;;;;;;1.67;1.30;;;24.30;51.90;;;;;;4161282;28;20154;-51
2021/12/15 07:48:17;;;;;;;1.77;1.27;;;24.20;52.00;;;;;;4157452;28;20151;-53
2021/12/15 07:50:20;;;;;;;1.70;1.20;;;24.20;52.30;;;;;;4152339;28;20056;-56
2021/12/15 07:52:22;;;;;;;3.72;1.20;;;24.20;52.40;;;;;;4144997;28;20099;-53
2021/12/15 07:54:24;;;;;;;2.08;1.45;;;24.10;52.40;;;;;;4161557;28;20461;-56
2021/12/15 07:56:26;;;;;;;1.50;1.10;;;24.10;52.40;;;;;;4151758;28;21881;-51
2021/12/15 07:58:29;;;;;;;6.57;1.33;;;24.00;52.50;;;;;;4152384;28;20447;-50
2021/12/15 08:00:31;;;;;;;3.03;1.40;;;24.00;52.50;;;;;;4155798;28;20044;-57
2021/12/15 08:02:33;;;;;;;1.80;1.43;;;24.00;52.30;;;;;;4160653;28;20507;-54
2021/12/15 08:04:35;;;;;;;1.65;1.13;;;24.00;52.40;;;;;;4150986;28;20227;-55
2021/12/15 08:06:38;;;;;;;2.42;1.55;;;23.90;52.10;;;;;;4150163;28;20142;-50
2021/12/15 08:08:40;;;;;;;2.00;1.33;;;23.80;52.10;;;;;;4160024;28;20048;-53
2021/12/15 08:10:43;;;;;;;1.73;1.50;;;23.80;52.10;;;;;;4152653;28;21909;-52
2021/12/15 08:12:46;;;;;;;2.03;1.38;;;23.80;52.80;;;;;;4144526;28;20124;-53
2021/12/15 08:14:48;;;;;;;;;;;23.70;52.20;;;;;;4140864;28;20147;-52
2021/12/15 08:16:50;;;;;;;3.10;1.65;;;23.70;52.20;;;;;;4140445;28;20773;-55
2021/12/15 08:18:52;;;;;;;2.03;1.60;;;23.60;52.30;;;;;;4138130;28;20185;-53
2021/12/15 08:20:54;;;;;;;2.35;1.58;;;23.60;52.60;;;;;;4141221;28;20112;-54
2021/12/15 08:22:57;;;;;;;3.30;1.63;;;23.60;52.60;;;;;;4181054;27;20051;-52
2021/12/15 08:24:59;;;;;;;3.78;1.67;;;23.50;52.50;;;;;;4140958;28;20736;-55
2021/12/15 08:27:01;;;;;;;3.33;1.80;;;23.50;52.60;;;;;;4140570;28;20591;-57
2021/12/15 08:29:04;;;;;;;4.45;2.25;;;23.50;53.30;;;;;;4149450;28;20143;-57
2021/12/15 08:31:07;;;;;;;4.05;1.83;;;23.50;52.60;;;;;;4141883;28;20053;-58
2021/12/15 08:33:16;;;;;;;2.53;1.67;;;23.40;52.60;;;;;;4138322;28;20075;-56
2021/12/15 08:35:23;;;;;;;3.92;2.00;;;23.40;53.40;;;;;;4139312;28;20045;-56
2021/12/15 08:37:26;;;;;;;3.10;1.60;;;23.30;52.80;;;;;;4175551;27;20233;-58
2021/12/15 08:39:28;;;;;;;2.60;1.90;;;23.30;52.70;;;;;;4148733;28;20052;-53
2021/12/15 08:41:30;;;;;;;2.42;1.70;;;23.30;52.80;;;;;;4139119;28;20143;-57
2021/12/15 08:43:33;;;;;;;2.67;1.73;;;23.20;53.50;;;;;;4141990;28;20067;-56
2021/12/15 08:45:38;;;;;;;3.30;1.52;;;23.20;53.10;;;;;;4149552;28;20440;-56
2021/12/15 08:47:40;;;;;;;3.70;1.67;;;23.20;53.90;;;;;;4135354;28;20130;-53
2021/12/15 08:49:42;;;;;;;2.25;1.60;;;23.10;54.00;;;;;;4138378;28;20053;-57
2021/12/15 08:51:46;;;;;;;2.58;1.85;;;23.10;54.10;;;;;;4149318;28;20151;-56
2021/12/15 08:53:48;;;;;;;3.33;1.95;;;23.10;54.20;;;;;;4145870;28;20134;-56
2021/12/15 08:55:51;;;;;;;2.80;1.92;;;23.00;54.10;;;;;;4140944;28;20048;-61
2021/12/15 08:57:56;;;;;;;3.17;1.58;;;23.00;54.40;;;;;;4145837;28;20076;-57
2021/12/15 08:59:58;;;;;;;1.48;1.35;;;23.00;54.30;;;;;;4149765;28;20064;-58
2021/12/15 09:02:00;;;;;;;2.83;1.50;;;23.00;54.00;;;;;;4141343;28;20067;-58
2021/12/15 09:04:03;;;;;;;2.03;1.52;;;22.90;53.90;;;;;;4141270;28;20158;-58
2021/12/15 09:06:06;;;;;;;1.92;1.48;;;22.90;53.90;;;;;;4149217;28;20133;-58
2021/12/15 09:08:09;;;;;;;2.30;1.48;;;22.90;54.00;;;;;;4148590;28;20893;-55
2021/12/15 09:10:11;;;;;;;1.70;1.50;;;;;;;;;;4141855;28;20052;-57
2021/12/15 09:12:18;;;;;;;1.50;1.15;;;22.90;53.90;;;;;;4138849;28;20081;-51
2021/12/15 09:14:20;;;;;;;4.38;1.30;;;22.80;54.50;;;;;;4144351;28;20052;-57
2021/12/15 09:16:24;;;;;;;1.13;0.85;;;22.80;54.80;;;;;;4146153;28;20052;-59
2021/12/15 09:18:26;;;;;;;4.65;1.27;;;22.90;55.20;;;;;;4137505;28;20059;-57
2021/12/15 09:20:32;;;;;;;1.10;1.00;;;23.00;56.10;;;;;;4136817;28;20163;-57
2021/12/15 09:22:34;;;;;;;5.40;1.35;;;23.10;55.80;;;;;;4146121;28;20052;-53
2021/12/15 09:24:37;;;;;;;4.50;1.23;;;23.20;56.20;;;;;;4144139;28;20320;-56
2021/12/15 09:26:39;;;;;;;3.93;1.23;;;23.20;56.70;;;;;;4137798;28;20135;-51
2021/12/15 09:28:42;;;;;;;5.10;1.17;;;23.30;57.00;;;;;;4136861;28;20305;-53
2021/12/15 09:30:46;;;;;;;3.33;1.00;;;23.40;57.50;;;;;;4148004;28;20052;-54
2021/12/15 09:32:48;;;;;;;6.15;1.00;;;23.50;57.40;;;;;;4137894;28;20330;-53
2021/12/15 09:34:50;;;;;;;1.95;0.98;;;23.60;58.30;;;;;;4166679;28;20095;-53
2021/12/15 09:36:54;;;;;;;3.22;1.00;;;23.70;57.70;;;;;;4144941;28;20121;-58
2021/12/15 09:39:06;;;;;;;3.03;0.90;;;23.70;57.80;;;;;;4144104;28;20867;-55
2021/12/15 09:41:13;;;;;;;6.00;1.00;;;23.80;58.50;;;;;;4145882;28;20155;-56
2021/12/15 09:43:15;;;;;;;1.95;0.93;;;23.90;58.00;;;;;;4138822;28;21328;-49
2021/12/15 09:45:31;;;;;;;1.95;0.70;;;24.00;58.30;;;;;;4136387;28;20037;-56
2021/12/15 09:57:24;;;;;;;2.10;0.80;;;24.30;58.70;;;;;;4141247;28;20049;-52
2021/12/15 10:06:44;;;;;;;1.52;0.57;;;24.50;59.20;;;;;;4192179;27;20113;-56
2021/12/15 10:18:46;;;;;;;2.90;1.20;;;24.80;59.80;;;;;;4131803;28;21029;-61
2021/12/15 10:20:48;;;;;;;1.83;0.63;;;24.80;60.00;;;;;;4179904;27;20827;-59
2021/12/15 10:22:57;;;;;;;1.60;0.73;;;24.90;59.90;;;;;;4204877;27;20043;-60
2021/12/15 10:25:20;;;;;;;3.10;0.85;;;24.90;60.00;;;;;;4202820;27;20134;-57
2021/12/15 10:27:43;;;;;;;3.30;0.97;;;25.00;60.00;;;;;;4199815;27;20400;-59
2021/12/15 10:30:03;;;;;;;4.38;1.17;;;25.00;59.90;;;;;;4190878;27;20065;-58
2021/12/15 10:32:07;;;;;;;2.88;0.95;;;25.10;60.00;;;;;;4201606;27;20130;-56
2021/12/15 10:34:11;;;;;;;2.08;0.70;;;25.10;60.10;;;;;;4198543;27;20043;-59
2021/12/15 10:36:18;;;;;;;2.72;0.80;;;25.10;60.00;;;;;;4192355;27;20050;-57
2021/12/15 10:38:27;;;;;;;1.23;0.65;;;25.20;60.20;;;;;;4197243;28;20051;-58
2021/12/15 10:40:29;;;;;;;2.20;0.50;;;25.20;60.10;;;;;;4203103;27;20408;-59
2021/12/15 10:42:32;;;;;;;2.17;0.55;;;25.30;60.20;;;;;;4211502;27;20043;-59
2021/12/15 10:44:34;;;;;;;2.63;0.50;;;25.30;60.20;;;;;;4221567;27;20648;-59
2021/12/15 10:46:51;;;;;;;1.92;0.93;;;25.30;60.00;;;;;;4226299;27;20557;-57
2021/12/15 10:49:15;;;;;;;5.35;0.98;;;25.40;60.30;;;;;;4224750;27;20627;-53
2021/12/15 10:51:16;;;;;;;;;;;;;;;;;;4222473;27;20055;-56
2021/12/15 10:53:31;;;;;;;3.50;1.33;;;25.40;60.50;;;;;;4226141;27;19915;-51
2021/12/15 10:55:39;;;;;;;4.07;1.08;;;25.50;60.60;;;;;;4223274;27;20056;-58
2021/12/15 10:57:44;;;;;;;2.10;1.05;;;25.60;60.80;;;;;;4223341;27;20059;-58
2021/12/15 10:59:49;;;;;;;3.40;0.80;;;25.60;60.80;;;;;;4222016;27;20909;-57
2021/12/15 11:02:04;;;;;;;9.45;1.77;;;25.60;60.90;;;;;;4224378;27;20116;-52
2021/12/15 11:04:30;;;;;;;3.10;1.23;;;25.60;60.90;;;;;;4226072;27;20066;-54
2021/12/15 11:06:33;;;;;;;3.90;0.98;;;25.70;61.00;;;;;;4223085;27;20920;-56
2021/12/15 11:08:36;;;;;;;1.98;0.93;;;25.70;61.00;;;;;;4205887;28;20086;-57
2021/12/15 11:10:39;;;;;;;5.07;1.10;;;25.80;61.10;;;;;;4227215;27;20065;-56
2021/12/15 11:12:51;;;;;;;3.22;0.93;;;25.80;61.10;;;;;;4215280;28;20044;-57
2021/12/15 11:15:00;;;;;;;6.50;1.25;;;25.80;61.20;;;;;;4201407;28;20052;-56
2021/12/15 11:17:09;;;;;;;3.97;1.00;;;25.80;61.00;;;;;;4212185;28;20052;-57
2021/12/15 11:19:38;;;;;;;2.42;0.90;;;25.90;61.20;;;;;;4217404;28;20086;-58
2021/12/15 11:21:40;;;;;;;2.65;0.80;;;25.90;61.00;;;;;;4211883;27;20083;-55
2021/12/15 11:23:43;;;;;;;3.15;1.10;;;26.00;61.20;;;;;;4216545;28;20562;-53
2021/12/15 11:25:59;;;;;;;1.95;1.00;;;26.00;61.20;;;;;;4217911;28;20506;-57
2021/12/15 11:28:09;;;;;;;6.10;0.82;;;26.00;61.10;;;;;;4218972;28;20044;-50
2021/12/15 11:30:19;;;;;;;2.42;0.98;;;26.00;61.10;;;;;;4216194;28;20062;-57
2021/12/15 11:32:45;;;;;;;2.60;0.80;;;26.00;61.00;;;;;;4214606;28;20112;-56
2021/12/15 11:35:12;;;;;;;3.53;0.88;;;26.10;61.10;;;;;;4213525;28;20864;-55
2021/12/15 11:37:14;;;;;;;4.78;1.30;;;26.10;61.30;;;;;;4208495;28;20047;-57
2021/12/15 11:39:19;;;;;;;4.53;0.95;;;26.10;61.30;;;;;;4211759;28;20047;-52
2021/12/15 11:41:25;;;;;;;2.50;0.70;;;26.10;61.30;;;;;;4210870;28;20376;-55
2021/12/15 11:43:52;;;;;;;2.83;1.08;;;26.10;61.20;;;;;;4217241;28;21042;-56
2021/12/15 11:45:54;;;;;;;3.15;0.93;;;26.20;61.30;;;;;;4202987;28;20047;-56
2021/12/15 11:48:14;;;;;;;2.07;0.93;;;26.20;61.30;;;;;;4211351;28;20044;-58
2021/12/15 11:50:22;;;;;;;2.55;0.85;;;26.20;61.20;;;;;;4211746;28;20461;-55
2021/12/15 11:52:24;;;;;;;1.85;1.00;;;26.20;61.20;;;;;;4212474;28;20066;-57
2021/12/15 11:54:34;;;;;;;5.32;1.00;;;26.20;61.20;;;;;;4217024;28;20063;-54
2021/12/15 11:56:37;;;;;;;2.63;1.00;;;26.30;61.30;;;;;;4215253;28;20559;-55
2021/12/15 11:58:41;;;;;;;2.88;0.95;;;26.30;61.40;;;;;;4201385;28;20044;-56
2021/12/15 12:00:43;;;;;;;8.48;1.27;;;26.30;61.50;;;;;;4190023;28;20735;-53
2021/12/15 12:02:54;;;;;;;5.03;1.38;;;26.30;61.70;;;;;;4195030;28;20793;-55
2021/12/15 12:05:02;;;;;;;4.28;0.95;;;26.30;61.90;;;;;;4175261;28;20194;-54
2021/12/15 12:07:13;;;;;;;5.28;1.20;;;26.40;62.10;;;;;;4183309;28;20427;-57